createdAt,value
2018-03-27T00:00:39.850Z,91.70
2018-03-27T00:03:08.030Z,91.80
2018-03-27T00:05:36.164Z,91.90
2018-03-27T00:08:04.287Z,91.80
2018-03-27T00:10:33.234Z,91.40
2018-03-27T00:13:01.382Z,91.40
2018-03-27T00:15:29.532Z,91.30
2018-03-27T00:17:58.477Z,91.50
2018-03-27T00:20:26.631Z,91.50
2018-03-27T00:22:54.832Z,91.60
2018-03-27T00:25:23.018Z,91.70
2018-03-27T00:28:03.191Z,91.70
2018-03-27T00:30:43.766Z,91.70
2018-03-27T00:33:23.898Z,91.70
2018-03-27T00:36:04.680Z,91.40
2018-03-27T00:38:45.620Z,91.50
2018-03-27T00:41:34.588Z,91.50
2018-03-27T00:44:02.743Z,91.40
2018-03-27T00:46:30.881Z,91.40
2018-03-27T00:48:59.071Z,91.40
2018-03-27T00:51:27.245Z,91.30
2018-03-27T00:53:55.601Z,91.40
2018-03-27T00:56:23.840Z,91.50
2018-03-27T00:58:51.969Z,91.50
2018-03-27T01:01:20.145Z,91.50
2018-03-27T01:03:48.310Z,91.60
2018-03-27T01:06:16.456Z,91.80
2018-03-27T01:08:45.365Z,91.90
2018-03-27T01:11:13.526Z,91.90
2018-03-27T01:13:42.429Z,92.00
2018-03-27T01:16:10.920Z,92.00
2018-03-27T01:18:39.078Z,92.00
2018-03-27T01:21:07.218Z,92.00
2018-03-27T01:23:35.835Z,92.20
2018-03-27T01:26:03.980Z,92.40
2018-03-27T01:28:32.253Z,92.10
2018-03-27T01:31:00.549Z,91.80
2018-03-27T01:33:29.615Z,91.70
2018-03-27T01:35:57.767Z,91.70
2018-03-27T01:38:25.958Z,92.00
2018-03-27T01:40:54.926Z,92.50
2018-03-27T01:43:23.077Z,92.20
2018-03-27T01:45:51.314Z,91.90
2018-03-27T01:48:19.598Z,91.80
2018-03-27T01:50:47.740Z,92.10
2018-03-27T01:53:15.880Z,92.10
2018-03-27T01:55:44.053Z,92.00
2018-03-27T01:58:12.196Z,91.90
2018-03-27T02:00:41.114Z,91.90
2018-03-27T02:03:09.474Z,91.80
2018-03-27T02:05:38.613Z,92.00
2018-03-27T02:08:07.046Z,92.00
2018-03-27T02:10:35.471Z,92.10
2018-03-27T02:13:09.438Z,92.10
2018-03-27T02:15:44.241Z,92.40
2018-03-27T02:18:18.410Z,92.40
2018-03-27T02:20:52.681Z,92.40
2018-03-27T02:23:20.813Z,92.40
2018-03-27T02:25:48.964Z,92.20
2018-03-27T02:28:17.199Z,92.20
2018-03-27T02:30:45.923Z,92.10
2018-03-27T02:33:14.064Z,92.30
2018-03-27T02:35:42.214Z,92.40
2018-03-27T02:38:10.354Z,92.40
2018-03-27T02:40:38.601Z,92.40
2018-03-27T02:43:07.532Z,92.20
2018-03-27T02:45:35.729Z,92.20
2018-03-27T02:48:03.870Z,92.20
2018-03-27T02:50:32.092Z,92.10
2018-03-27T02:53:01.744Z,92.10
2018-03-27T02:55:29.938Z,92.10
2018-03-27T02:57:58.178Z,92.20
2018-03-27T03:00:26.376Z,92.50
2018-03-27T03:02:54.652Z,92.20
2018-03-27T03:05:22.826Z,92.30
2018-03-27T03:07:50.985Z,92.50
2018-03-27T03:10:19.443Z,92.50
2018-03-27T03:12:47.687Z,92.40
2018-03-27T03:15:15.878Z,92.50
2018-03-27T03:17:44.280Z,92.40
2018-03-27T03:20:13.344Z,92.50
2018-03-27T03:22:41.501Z,92.50
2018-03-27T03:25:09.663Z,92.60
2018-03-27T03:27:37.822Z,92.80
2018-03-27T03:30:06.086Z,93.00
2018-03-27T03:32:34.338Z,93.10
2018-03-27T03:35:03.308Z,93.50
2018-03-27T03:37:31.442Z,93.50
2018-03-27T03:39:59.612Z,93.50
2018-03-27T03:42:27.759Z,93.50
2018-03-27T03:44:56.686Z,93.70
2018-03-27T03:47:24.823Z,93.70
2018-03-27T03:49:53.744Z,93.90
2018-03-27T03:52:21.890Z,93.90
2018-03-27T03:54:50.901Z,94.40
2018-03-27T03:57:19.109Z,94.30
2018-03-27T03:59:47.306Z,94.40
2018-03-27T04:02:15.710Z,94.80
2018-03-27T04:04:44.990Z,95.70
2018-03-27T04:07:13.137Z,95.70
2018-03-27T04:09:41.369Z,95.90
2018-03-27T04:12:09.719Z,96.00
2018-03-27T04:14:37.870Z,96.00
2018-03-27T04:17:06.027Z,96.00
2018-03-27T04:19:34.189Z,95.80
2018-03-27T04:22:02.555Z,95.70
2018-03-27T04:24:31.656Z,95.30
2018-03-27T04:26:59.869Z,95.20
2018-03-27T04:29:28.209Z,94.60
2018-03-27T04:31:56.726Z,94.20
2018-03-27T04:34:24.970Z,93.70
2018-03-27T04:36:53.180Z,92.60
2018-03-27T04:39:21.334Z,92.70
2018-03-27T04:41:49.498Z,92.70
2018-03-27T04:44:17.650Z,92.80
2018-03-27T04:46:46.028Z,92.70
2018-03-27T04:49:14.197Z,92.50
2018-03-27T04:51:42.406Z,92.20
2018-03-27T04:54:11.059Z,92.30
2018-03-27T04:56:39.231Z,91.80
2018-03-27T04:59:07.381Z,92.00
2018-03-27T05:01:35.540Z,92.10
2018-03-27T05:04:03.700Z,91.20
2018-03-27T05:06:32.150Z,90.40
2018-03-27T05:09:00.328Z,90.60
2018-03-27T05:11:28.504Z,90.40
2018-03-27T05:13:56.823Z,90.40
2018-03-27T05:16:25.063Z,89.50
2018-03-27T05:18:53.503Z,89.00
2018-03-27T05:21:21.641Z,88.60
2018-03-27T05:23:49.781Z,87.80
2018-03-27T05:26:18.021Z,87.30
2018-03-27T05:28:46.967Z,86.50
2018-03-27T05:31:15.334Z,86.40
2018-03-27T05:33:43.586Z,86.50
2018-03-27T05:36:11.784Z,86.00
2018-03-27T05:38:40.343Z,86.20
2018-03-27T05:41:09.348Z,84.40
2018-03-27T05:43:37.655Z,84.40
2018-03-27T05:46:05.818Z,84.10
2018-03-27T05:48:34.137Z,83.80
2018-03-27T05:51:02.488Z,83.50
2018-03-27T05:53:30.629Z,83.30
2018-03-27T05:55:58.926Z,82.70
2018-03-27T05:58:27.197Z,82.30
2018-03-27T06:00:55.334Z,81.80
2018-03-27T06:03:23.511Z,81.60
2018-03-27T06:05:51.694Z,81.40
2018-03-27T06:08:19.858Z,81.50
2018-03-27T06:10:48.031Z,80.90
2018-03-27T06:13:16.296Z,80.90
2018-03-27T06:15:45.208Z,80.50
2018-03-27T06:18:13.383Z,80.50
2018-03-27T06:20:41.556Z,80.30
2018-03-27T06:23:09.687Z,80.10
2018-03-27T06:25:37.959Z,79.70
2018-03-27T06:28:06.083Z,79.50
2018-03-27T06:30:34.255Z,79.20
2018-03-27T06:33:02.708Z,78.80
2018-03-27T06:35:31.616Z,78.10
2018-03-27T06:37:59.756Z,78.00
2018-03-27T06:40:28.073Z,77.50
2018-03-27T06:42:56.335Z,77.60
2018-03-27T06:45:24.475Z,77.50
2018-03-27T06:47:52.679Z,77.10
2018-03-27T06:50:20.996Z,75.90
2018-03-27T06:52:49.152Z,75.50
2018-03-27T06:55:17.350Z,75.20
2018-03-27T06:57:45.482Z,75.10
2018-03-27T07:00:13.671Z,74.80
2018-03-27T07:05:16.448Z,75.80
2018-03-27T07:07:46.136Z,75.10
2018-03-27T07:10:14.261Z,75.00
2018-03-27T07:12:42.403Z,75.00
2018-03-27T07:15:11.383Z,74.30
2018-03-27T07:17:39.489Z,74.30
2018-03-27T07:20:07.656Z,74.50
2018-03-27T07:22:36.392Z,74.60
2018-03-27T07:25:04.549Z,73.90
2018-03-27T07:27:32.706Z,74.20
2018-03-27T07:30:01.355Z,73.90
2018-03-27T07:32:29.502Z,74.20
2018-03-27T07:34:57.634Z,73.80
2018-03-27T07:37:25.846Z,73.10
2018-03-27T07:39:54.141Z,72.90
2018-03-27T07:42:22.436Z,72.80
2018-03-27T07:44:50.726Z,73.00
2018-03-27T07:47:18.871Z,73.10
2018-03-27T07:49:47.771Z,74.30
2018-03-27T07:52:16.697Z,73.30
2018-03-27T07:54:44.825Z,73.10
2018-03-27T07:57:13.879Z,71.90
2018-03-27T07:59:42.243Z,71.80
2018-03-27T08:02:10.490Z,71.20
2018-03-27T08:04:39.577Z,71.90
2018-03-27T08:07:08.487Z,71.00
2018-03-27T08:09:36.696Z,70.90
2018-03-27T08:12:04.923Z,70.50
2018-03-27T08:14:33.849Z,69.50
2018-03-27T08:17:01.997Z,69.50
2018-03-27T08:19:30.158Z,69.20
2018-03-27T08:21:59.131Z,68.40
2018-03-27T08:24:27.390Z,68.30
2018-03-27T08:26:55.571Z,68.30
2018-03-27T08:29:23.927Z,68.00
2018-03-27T08:31:52.152Z,67.10
2018-03-27T08:34:21.850Z,63.60
2018-03-27T08:36:50.015Z,63.60
2018-03-27T08:39:18.189Z,63.00
2018-03-27T08:41:46.344Z,62.40
2018-03-27T08:44:14.505Z,62.50
2018-03-27T08:46:42.650Z,62.50
2018-03-27T08:49:10.918Z,62.60
2018-03-27T08:51:39.242Z,62.80
2018-03-27T08:54:08.106Z,62.50
2018-03-27T08:56:36.247Z,63.20
2018-03-27T08:59:04.898Z,63.90
2018-03-27T09:01:33.133Z,63.40
2018-03-27T09:04:01.424Z,63.50
2018-03-27T09:06:29.686Z,64.10
2018-03-27T09:08:58.009Z,63.90
2018-03-27T09:11:26.159Z,63.90
2018-03-27T09:13:54.433Z,64.40
2018-03-27T09:16:22.649Z,64.70
2018-03-27T09:18:51.733Z,64.40
2018-03-27T09:21:19.987Z,64.30
2018-03-27T09:23:48.407Z,64.60
2018-03-27T09:26:17.475Z,62.60
2018-03-27T09:28:45.716Z,62.60
2018-03-27T09:31:15.036Z,62.20
2018-03-27T09:33:43.287Z,62.20
2018-03-27T09:36:11.645Z,62.60
2018-03-27T09:38:39.814Z,63.00
2018-03-27T09:41:07.959Z,62.60
2018-03-27T09:43:36.905Z,65.50
2018-03-27T09:46:05.383Z,65.40
2018-03-27T09:48:33.551Z,67.20
2018-03-27T09:51:02.170Z,67.50
2018-03-27T09:53:30.328Z,69.00
2018-03-27T09:55:58.477Z,69.10
2018-03-27T09:58:26.709Z,68.70
2018-03-27T10:00:54.920Z,69.30
2018-03-27T10:03:23.189Z,69.80
2018-03-27T10:05:51.402Z,71.20
2018-03-27T10:08:19.603Z,68.20
2018-03-27T10:10:47.913Z,67.40
2018-03-27T10:13:16.943Z,68.00
2018-03-27T10:15:45.107Z,67.90
2018-03-27T10:18:14.148Z,67.70
2018-03-27T10:20:42.418Z,66.50
2018-03-27T10:23:10.729Z,67.90
2018-03-27T10:25:38.862Z,70.60
2018-03-27T10:28:07.037Z,68.70
2018-03-27T10:30:35.353Z,70.00
2018-03-27T10:33:04.272Z,72.70
2018-03-27T10:35:32.431Z,72.70
2018-03-27T10:38:00.606Z,73.60
2018-03-27T10:40:28.778Z,73.00
2018-03-27T10:42:57.093Z,71.70
2018-03-27T10:45:26.053Z,74.30
2018-03-27T10:47:54.214Z,74.20
2018-03-27T10:50:23.143Z,75.60
2018-03-27T10:52:51.418Z,75.60
2018-03-27T10:55:20.375Z,75.80
2018-03-27T10:57:49.275Z,76.20
2018-03-27T11:00:17.560Z,76.20
2018-03-27T11:02:45.714Z,76.30
2018-03-27T11:05:14.630Z,76.50
2018-03-27T11:07:42.768Z,76.40
2018-03-27T11:10:10.921Z,76.90
2018-03-27T11:12:39.081Z,75.40
2018-03-27T11:15:07.236Z,74.50
2018-03-27T11:17:35.421Z,74.50
2018-03-27T11:20:03.775Z,75.70
2018-03-27T11:22:33.012Z,75.20
2018-03-27T11:25:01.174Z,77.20
2018-03-27T11:27:29.442Z,76.90
2018-03-27T11:29:57.679Z,76.50
2018-03-27T11:32:26.575Z,77.90
2018-03-27T11:34:54.740Z,77.90
2018-03-27T11:37:23.646Z,76.20
2018-03-27T11:39:51.809Z,76.00
2018-03-27T11:42:19.977Z,75.10
2018-03-27T11:44:48.917Z,75.60
2018-03-27T11:47:17.071Z,75.60
2018-03-27T11:49:45.244Z,75.40
2018-03-27T11:52:13.386Z,77.80
2018-03-27T11:54:42.496Z,78.00
2018-03-27T11:57:10.669Z,77.90
2018-03-27T11:59:38.799Z,77.60
2018-03-27T12:02:06.946Z,77.90
2018-03-27T12:04:35.129Z,77.90
2018-03-27T12:07:03.514Z,78.80
2018-03-27T12:09:31.713Z,79.00
2018-03-27T12:11:59.871Z,78.90
2018-03-27T12:14:28.020Z,79.70
2018-03-27T12:16:57.043Z,80.40
2018-03-27T12:19:25.262Z,80.40
2018-03-27T12:21:54.180Z,81.40
2018-03-27T12:24:22.326Z,81.30
2018-03-27T12:26:50.512Z,81.40
2018-03-27T12:29:18.676Z,81.30
2018-03-27T12:31:46.896Z,81.30
2018-03-27T12:34:15.266Z,82.70
2018-03-27T12:36:43.402Z,82.50
2018-03-27T12:39:11.626Z,81.80
2018-03-27T12:41:39.798Z,82.70
2018-03-27T12:44:09.232Z,82.50
2018-03-27T12:46:38.557Z,82.90
2018-03-27T12:49:06.724Z,82.90
2018-03-27T12:51:34.883Z,82.30
2018-03-27T12:54:03.074Z,82.20
2018-03-27T12:56:31.453Z,81.70
2018-03-27T12:58:59.651Z,81.40
2018-03-27T13:01:27.768Z,80.90
2018-03-27T13:03:56.136Z,82.70
2018-03-27T13:06:24.279Z,82.70
2018-03-27T13:08:52.498Z,83.30
2018-03-27T13:11:22.338Z,85.00
2018-03-27T13:13:50.496Z,85.00
2018-03-27T13:16:19.458Z,86.50
2018-03-27T13:18:47.625Z,86.40
2018-03-27T13:21:15.778Z,86.90
2018-03-27T13:23:43.989Z,86.70
2018-03-27T13:26:12.962Z,87.00
2018-03-27T13:28:41.120Z,87.00
2018-03-27T13:31:09.870Z,86.80
2018-03-27T13:33:38.061Z,84.20
2018-03-27T13:36:06.252Z,84.80
2018-03-27T13:38:35.046Z,84.50
2018-03-27T13:41:03.196Z,84.80
2018-03-27T13:43:31.388Z,84.90
2018-03-27T13:45:59.572Z,84.20
2018-03-27T13:48:27.717Z,82.40
2018-03-27T13:50:55.877Z,83.20
2018-03-27T13:53:24.023Z,82.30
2018-03-27T13:55:52.209Z,82.30
2018-03-27T13:58:20.577Z,80.50
2018-03-27T14:00:49.809Z,81.60
2018-03-27T14:03:18.060Z,79.80
2018-03-27T14:05:47.164Z,80.00
2018-03-27T14:08:16.081Z,80.10
2018-03-27T14:10:44.331Z,80.10
2018-03-27T14:13:12.853Z,80.10
2018-03-27T14:15:40.995Z,79.30
2018-03-27T14:18:09.179Z,79.30
2018-03-27T14:20:37.717Z,79.80
2018-03-27T14:23:05.873Z,79.50
2018-03-27T14:25:34.036Z,79.60
2018-03-27T14:28:02.277Z,80.10
2018-03-27T14:30:30.430Z,81.90
2018-03-27T14:32:58.872Z,81.40
2018-03-27T14:35:28.620Z,82.40
2018-03-27T14:37:57.770Z,84.80
2018-03-27T14:40:25.973Z,84.80
2018-03-27T14:42:54.122Z,83.40
2018-03-27T14:45:22.244Z,85.00
2018-03-27T14:47:51.226Z,85.00
2018-03-27T14:50:20.576Z,85.00
2018-03-27T14:52:48.700Z,85.00
2018-03-27T14:55:18.109Z,85.70
2018-03-27T14:57:46.382Z,85.70
2018-03-27T15:00:15.294Z,87.70
2018-03-27T15:02:43.703Z,87.70
2018-03-27T15:05:11.850Z,86.90
2018-03-27T15:07:40.048Z,87.60
2018-03-27T15:10:08.405Z,87.30
2018-03-27T15:12:36.918Z,86.90
2018-03-27T15:15:08.902Z,86.60
2018-03-27T15:17:37.387Z,85.40
2018-03-27T15:20:05.531Z,86.70
2018-03-27T15:22:34.134Z,87.10
2018-03-27T15:25:02.717Z,86.30
2018-03-27T15:27:31.127Z,85.50
2018-03-27T15:30:00.427Z,86.30
2018-03-27T15:32:29.352Z,85.70
2018-03-27T15:34:57.652Z,85.70
2018-03-27T15:37:25.977Z,85.90
2018-03-27T15:39:55.025Z,86.90
2018-03-27T15:42:23.180Z,86.80
2018-03-27T15:44:51.335Z,86.90
2018-03-27T15:47:19.600Z,86.60
2018-03-27T15:49:48.552Z,88.10
2018-03-27T15:52:16.715Z,88.00
2018-03-27T15:54:44.854Z,88.60
2018-03-27T15:57:13.069Z,88.40
2018-03-27T15:59:41.469Z,88.20
2018-03-27T16:02:09.752Z,88.10
2018-03-27T16:04:38.717Z,90.00
2018-03-27T16:07:06.896Z,90.00
2018-03-27T16:09:35.249Z,89.20
2018-03-27T16:12:03.535Z,88.60
2018-03-27T16:14:31.722Z,89.30
2018-03-27T16:16:59.911Z,89.70
2018-03-27T16:19:28.996Z,90.50
2018-03-27T16:21:57.404Z,90.50
2018-03-27T16:24:26.447Z,90.90
2018-03-27T16:26:54.813Z,90.90
2018-03-27T16:29:22.990Z,90.80
2018-03-27T16:31:51.230Z,90.80
2018-03-27T16:34:19.446Z,91.00
2018-03-27T16:36:48.669Z,91.00
2018-03-27T16:39:16.827Z,91.00
2018-03-27T16:41:45.281Z,91.20
2018-03-27T16:44:13.632Z,91.20
2018-03-27T16:46:43.631Z,90.90
2018-03-27T16:49:12.587Z,91.20
2018-03-27T16:51:41.137Z,91.20
2018-03-27T16:54:09.289Z,91.40
2018-03-27T16:56:38.196Z,91.20
2018-03-27T16:59:07.276Z,91.40
2018-03-27T17:01:36.203Z,91.50
2018-03-27T17:04:04.362Z,91.80
2018-03-27T17:06:32.803Z,91.80
2018-03-27T17:09:00.944Z,91.70
2018-03-27T17:11:29.183Z,92.00
2018-03-27T17:13:57.382Z,91.80
2018-03-27T17:16:25.553Z,91.40
2018-03-27T17:18:53.727Z,91.70
2018-03-27T17:21:22.178Z,92.00
2018-03-27T17:23:51.218Z,92.10
2018-03-27T17:26:19.601Z,92.10
2018-03-27T17:28:47.899Z,92.10
2018-03-27T17:31:17.036Z,92.60
2018-03-27T17:33:46.178Z,92.60
2018-03-27T17:36:14.501Z,92.70
2018-03-27T17:38:43.602Z,93.10
2018-03-27T17:41:12.618Z,93.10
2018-03-27T17:43:40.789Z,93.10
2018-03-27T17:46:09.660Z,93.20
2018-03-27T17:48:37.825Z,93.30
2018-03-27T17:51:06.789Z,93.70
2018-03-27T17:53:36.160Z,93.70
2018-03-27T17:56:04.514Z,93.70
2018-03-27T17:58:32.698Z,94.00
2018-03-27T18:01:00.996Z,93.90
2018-03-27T18:03:29.273Z,94.00
2018-03-27T18:05:57.502Z,94.20
2018-03-27T18:08:26.457Z,94.20
2018-03-27T18:10:54.643Z,94.20
2018-03-27T18:13:24.603Z,94.10
2018-03-27T18:15:52.977Z,94.20
2018-03-27T18:18:21.722Z,94.40
2018-03-27T18:20:49.899Z,94.60
2018-03-27T18:23:19.131Z,94.60
2018-03-27T18:25:47.331Z,94.70
2018-03-27T18:28:15.575Z,94.70
2018-03-27T18:30:44.361Z,94.80
2018-03-27T18:33:13.285Z,95.00
2018-03-27T18:35:41.477Z,95.00
2018-03-27T18:38:09.635Z,95.10
2018-03-27T18:40:37.779Z,95.00
2018-03-27T18:43:07.685Z,95.10
2018-03-27T18:45:36.651Z,95.20
2018-03-27T18:48:04.812Z,95.20
2018-03-27T18:50:33.005Z,95.20
2018-03-27T18:53:01.160Z,95.20
2018-03-27T18:55:29.304Z,95.20
2018-03-27T18:58:01.681Z,95.20
2018-03-27T19:00:30.128Z,95.20
2018-03-27T19:02:59.051Z,95.30
2018-03-27T19:05:27.208Z,95.30
2018-03-27T19:07:55.356Z,95.40
2018-03-27T19:10:24.583Z,95.60
2018-03-27T19:12:52.839Z,95.60
2018-03-27T19:15:21.873Z,95.60
2018-03-27T19:17:50.325Z,95.70
2018-03-27T19:20:19.055Z,95.80
2018-03-27T19:22:47.193Z,95.80
2018-03-27T19:25:15.367Z,95.90
2018-03-27T19:27:43.734Z,95.80
2018-03-27T19:30:12.000Z,95.70
2018-03-27T19:32:40.426Z,95.60
2018-03-27T19:35:08.789Z,95.50
2018-03-27T19:37:37.029Z,95.40
2018-03-27T19:40:06.180Z,95.30
2018-03-27T19:42:34.922Z,95.30
2018-03-27T19:45:03.288Z,95.30
2018-03-27T19:47:32.211Z,95.20
2018-03-27T19:50:00.503Z,95.20
2018-03-27T19:52:28.769Z,95.20
2018-03-27T19:54:57.726Z,95.20
2018-03-27T19:57:25.977Z,95.20
2018-03-27T19:59:54.193Z,95.40
2018-03-27T20:02:22.510Z,95.00
2018-03-27T20:04:51.451Z,95.00
2018-03-27T20:07:20.389Z,95.10
2018-03-27T20:09:48.579Z,95.00
2018-03-27T20:12:17.090Z,95.10
2018-03-27T20:14:46.703Z,95.20
2018-03-27T20:17:15.091Z,95.10
2018-03-27T20:19:43.689Z,95.10
2018-03-27T20:22:12.503Z,95.20
2018-03-27T20:24:40.800Z,95.20
2018-03-27T20:27:08.973Z,95.20
2018-03-27T20:29:38.834Z,95.30
2018-03-27T20:32:07.099Z,95.30
2018-03-27T20:34:35.627Z,95.40
2018-03-27T20:37:03.958Z,95.30
2018-03-27T20:39:32.896Z,95.30
2018-03-27T20:42:01.693Z,95.30
2018-03-27T20:44:29.922Z,95.40
2018-03-27T20:46:58.081Z,95.40
2018-03-27T20:49:26.669Z,95.50
2018-03-27T20:51:55.694Z,95.50
2018-03-27T20:54:23.848Z,95.50
2018-03-27T20:56:52.008Z,95.50
2018-03-27T20:59:21.258Z,95.50
2018-03-27T21:01:49.499Z,95.50
2018-03-27T21:04:17.854Z,95.70
2018-03-27T21:06:46.785Z,95.50
2018-03-27T21:09:14.941Z,95.50
2018-03-27T21:11:43.247Z,95.50
2018-03-27T21:14:11.616Z,95.50
2018-03-27T21:16:39.759Z,95.50
2018-03-27T21:19:08.752Z,95.50
2018-03-27T21:21:37.661Z,95.50
2018-03-27T21:24:05.845Z,95.50
2018-03-27T21:26:34.008Z,95.50
2018-03-27T21:29:02.163Z,95.50
2018-03-27T21:31:30.363Z,95.50
2018-03-27T21:33:59.660Z,95.40
2018-03-27T21:36:27.804Z,95.40
2018-03-27T21:38:56.931Z,95.40
2018-03-27T21:41:25.101Z,95.40
2018-03-27T21:43:53.439Z,95.50
2018-03-27T21:46:22.393Z,95.40
2018-03-27T21:48:50.562Z,95.40
2018-03-27T21:51:18.811Z,95.50
2018-03-27T21:53:48.695Z,95.60
2018-03-27T21:56:17.280Z,95.60
2018-03-27T21:58:46.210Z,95.80
2018-03-27T22:01:15.295Z,95.90
2018-03-27T22:03:43.534Z,95.90
2018-03-27T22:06:11.827Z,95.90
2018-03-27T22:08:40.889Z,96.20
2018-03-27T22:11:09.198Z,96.10
2018-03-27T22:13:38.946Z,96.20
2018-03-27T22:16:07.101Z,96.20
2018-03-27T22:18:35.981Z,96.10
2018-03-27T22:21:06.173Z,96.30
2018-03-27T22:23:34.332Z,96.30
2018-03-27T22:26:02.711Z,96.40
2018-03-27T22:28:30.866Z,96.50
2018-03-27T22:30:59.237Z,96.60
2018-03-27T22:33:27.411Z,96.70
2018-03-27T22:35:55.725Z,96.70
2018-03-27T22:38:23.900Z,96.80
2018-03-27T22:40:52.112Z,97.10
2018-03-27T22:43:20.373Z,96.90
2018-03-27T22:45:49.575Z,96.90
2018-03-27T22:48:19.284Z,96.90
2018-03-27T22:50:48.529Z,96.90
2018-03-27T22:53:17.618Z,96.90
2018-03-27T22:55:45.964Z,97.00
2018-03-27T22:58:14.886Z,96.90
2018-03-27T23:00:47.075Z,96.90
2018-03-27T23:03:15.265Z,97.00
2018-03-27T23:05:43.506Z,97.00
2018-03-27T23:08:11.652Z,97.00
2018-03-27T23:10:40.841Z,96.90
2018-03-27T23:13:09.869Z,96.90
2018-03-27T23:15:38.348Z,96.80
2018-03-27T23:18:06.622Z,96.80
2018-03-27T23:20:34.980Z,96.70
2018-03-27T23:23:03.948Z,96.70
2018-03-27T23:25:32.172Z,96.60
2018-03-27T23:28:00.940Z,96.70
2018-03-27T23:30:29.096Z,96.60
2018-03-27T23:32:58.247Z,96.60
2018-03-27T23:35:27.058Z,96.60
2018-03-27T23:37:55.231Z,96.70
2018-03-27T23:40:23.550Z,96.80
2018-03-27T23:42:51.687Z,96.70
2018-03-27T23:45:20.126Z,96.80
2018-03-27T23:47:48.301Z,96.90
2018-03-27T23:50:16.592Z,96.90
2018-03-27T23:52:44.758Z,97.20
2018-03-27T23:55:13.117Z,96.90
2018-03-27T23:57:41.292Z,97.00
